createdAt,value
2018-11-22T00:00:41.979Z,0.00
2018-11-22T00:01:42.005Z,0.00
2018-11-22T00:02:42.028Z,0.00
2018-11-22T00:03:42.052Z,0.00
2018-11-22T00:04:42.083Z,0.00
2018-11-22T00:05:42.102Z,0.00
2018-11-22T00:06:42.124Z,0.00
2018-11-22T00:07:42.149Z,0.00
2018-11-22T00:08:42.176Z,0.00
2018-11-22T00:09:45.404Z,0.00
2018-11-22T00:10:42.222Z,0.00
2018-11-22T00:11:42.246Z,0.00
2018-11-22T00:12:42.271Z,0.00
2018-11-22T00:13:42.295Z,0.00
2018-11-22T00:14:42.319Z,0.00
2018-11-22T00:15:42.346Z,0.00
2018-11-22T00:16:42.367Z,0.00
2018-11-22T00:17:42.393Z,0.00
2018-11-22T00:18:42.416Z,0.00
2018-11-22T00:19:42.441Z,0.00
2018-11-22T00:20:42.466Z,0.00
2018-11-22T00:21:42.500Z,0.00
2018-11-22T00:22:42.513Z,0.00
2018-11-22T00:23:42.541Z,0.00
2018-11-22T00:24:42.564Z,0.00
2018-11-22T00:25:42.589Z,0.00
2018-11-22T00:26:42.610Z,0.00
2018-11-22T00:27:42.635Z,0.00
2018-11-22T00:28:42.660Z,0.00
2018-11-22T00:29:42.686Z,0.00
2018-11-22T00:30:42.717Z,0.00
2018-11-22T00:31:42.732Z,0.00
2018-11-22T00:32:42.759Z,0.00
2018-11-22T00:33:42.786Z,0.00
2018-11-22T00:34:42.806Z,0.00
2018-11-22T00:35:42.832Z,0.00
2018-11-22T00:36:42.855Z,0.00
2018-11-22T00:37:42.879Z,0.00
2018-11-22T00:38:42.903Z,0.00
2018-11-22T00:39:42.927Z,0.00
2018-11-22T00:40:42.953Z,0.00
2018-11-22T00:41:42.977Z,0.00
2018-11-22T00:42:43.000Z,0.00
2018-11-22T00:43:43.025Z,0.00
2018-11-22T00:44:43.049Z,0.00
2018-11-22T00:45:43.073Z,0.00
2018-11-22T00:46:43.099Z,0.00
2018-11-22T00:47:43.123Z,0.00
2018-11-22T00:48:43.147Z,0.00
2018-11-22T00:49:43.171Z,0.00
2018-11-22T00:50:43.195Z,0.00
2018-11-22T00:51:43.219Z,0.00
2018-11-22T00:52:43.245Z,0.00
2018-11-22T00:53:43.269Z,0.00
2018-11-22T00:54:43.293Z,0.00
2018-11-22T00:55:43.318Z,0.00
2018-11-22T00:56:43.343Z,0.00
2018-11-22T00:57:43.367Z,0.00
2018-11-22T00:58:43.390Z,0.00
2018-11-22T00:59:43.416Z,0.00
2018-11-22T01:00:43.439Z,0.00
2018-11-22T01:01:43.467Z,0.00
2018-11-22T01:02:43.488Z,0.00
2018-11-22T01:03:43.512Z,0.00
2018-11-22T01:04:43.536Z,0.00
2018-11-22T01:05:43.562Z,0.00
2018-11-22T01:06:43.593Z,0.00
2018-11-22T01:07:43.611Z,0.00
2018-11-22T01:08:43.635Z,0.00
2018-11-22T01:09:43.659Z,0.00
2018-11-22T01:10:43.683Z,0.00
2018-11-22T01:11:43.708Z,0.00
2018-11-22T01:12:43.732Z,0.00
2018-11-22T01:13:43.757Z,0.00
2018-11-22T01:14:43.780Z,0.00
2018-11-22T01:15:43.806Z,0.00
2018-11-22T01:16:43.830Z,0.00
2018-11-22T01:17:43.855Z,0.00
2018-11-22T01:18:43.880Z,0.00
2018-11-22T01:19:43.905Z,0.00
2018-11-22T01:20:43.929Z,0.00
2018-11-22T01:21:43.953Z,0.00
2018-11-22T01:22:43.977Z,0.00
2018-11-22T01:23:44.001Z,0.00
2018-11-22T01:24:44.026Z,0.00
2018-11-22T01:25:44.051Z,0.00
2018-11-22T01:26:44.077Z,0.00
2018-11-22T01:27:44.121Z,0.00
2018-11-22T01:28:44.125Z,0.00
2018-11-22T01:29:44.149Z,0.00
2018-11-22T01:30:44.172Z,0.00
2018-11-22T01:31:44.197Z,0.00
2018-11-22T01:32:44.225Z,0.00
2018-11-22T01:33:44.246Z,0.00
2018-11-22T01:34:44.274Z,0.00
2018-11-22T01:35:44.295Z,0.00
2018-11-22T01:36:44.320Z,0.00
2018-11-22T01:37:44.347Z,0.00
2018-11-22T01:38:44.369Z,0.00
2018-11-22T01:39:44.394Z,0.00
2018-11-22T01:40:44.421Z,0.00
2018-11-22T01:41:44.447Z,0.00
2018-11-22T01:42:44.468Z,0.00
2018-11-22T01:43:44.494Z,0.00
2018-11-22T01:44:44.516Z,0.00
2018-11-22T01:45:44.542Z,0.00
2018-11-22T01:46:44.565Z,0.00
2018-11-22T01:47:44.596Z,0.00
2018-11-22T01:48:44.615Z,0.00
2018-11-22T01:49:44.644Z,0.00
2018-11-22T01:50:44.665Z,0.00
2018-11-22T01:51:44.689Z,0.00
2018-11-22T01:52:44.714Z,0.00
2018-11-22T01:53:44.739Z,0.00
2018-11-22T01:54:44.763Z,0.00
2018-11-22T01:55:44.787Z,0.00
2018-11-22T01:56:44.811Z,0.00
2018-11-22T01:57:44.836Z,0.00
2018-11-22T01:58:44.864Z,0.00
2018-11-22T01:59:44.886Z,0.00
2018-11-22T02:00:44.910Z,0.00
2018-11-22T02:01:44.936Z,0.00
2018-11-22T02:02:44.959Z,0.00
2018-11-22T02:03:44.987Z,0.00
2018-11-22T02:04:45.010Z,0.00
2018-11-22T02:05:45.039Z,0.00
2018-11-22T02:06:45.058Z,0.00
2018-11-22T02:07:45.083Z,0.00
2018-11-22T02:08:45.109Z,0.00
2018-11-22T02:09:45.133Z,0.00
2018-11-22T02:10:45.158Z,0.00
2018-11-22T02:11:45.183Z,0.00
2018-11-22T02:12:45.206Z,0.00
2018-11-22T02:13:45.231Z,0.00
2018-11-22T02:14:45.256Z,0.00
2018-11-22T02:15:45.281Z,0.00
2018-11-22T02:16:45.305Z,0.00
2018-11-22T02:17:45.329Z,0.00
2018-11-22T02:18:45.355Z,0.00
2018-11-22T02:19:45.379Z,0.00
2018-11-22T02:20:45.404Z,0.00
2018-11-22T02:21:45.432Z,0.00
2018-11-22T02:22:45.458Z,0.00
2018-11-22T02:23:45.484Z,0.00
2018-11-22T02:24:45.504Z,0.00
2018-11-22T02:25:45.529Z,0.00
2018-11-22T02:26:45.550Z,0.00
2018-11-22T02:27:45.577Z,0.00
2018-11-22T02:28:45.602Z,0.00
2018-11-22T02:29:45.627Z,0.00
2018-11-22T02:30:45.650Z,0.00
2018-11-22T02:31:45.675Z,0.00
2018-11-22T02:32:45.702Z,0.00
2018-11-22T02:33:45.724Z,0.00
2018-11-22T02:34:45.748Z,0.00
2018-11-22T02:35:45.775Z,0.00
2018-11-22T02:36:45.798Z,0.00
2018-11-22T02:37:45.825Z,0.00
2018-11-22T02:38:45.848Z,0.00
2018-11-22T02:39:45.871Z,0.00
2018-11-22T02:40:45.896Z,0.00
2018-11-22T02:41:45.923Z,0.00
2018-11-22T02:42:45.944Z,0.00
2018-11-22T02:43:45.970Z,0.00
2018-11-22T02:44:45.997Z,0.00
2018-11-22T02:45:46.021Z,0.00
2018-11-22T02:46:46.042Z,0.00
2018-11-22T02:47:46.069Z,0.00
2018-11-22T02:48:46.093Z,0.00
2018-11-22T02:49:46.119Z,0.00
2018-11-22T02:50:46.142Z,0.00
2018-11-22T02:51:46.167Z,0.00
2018-11-22T02:52:46.193Z,0.00
2018-11-22T02:53:46.217Z,0.00
2018-11-22T02:54:46.241Z,0.00
2018-11-22T02:55:46.267Z,0.00
2018-11-22T02:56:46.292Z,0.00
2018-11-22T02:57:46.320Z,0.00
2018-11-22T02:58:46.341Z,0.00
2018-11-22T02:59:46.367Z,0.00
2018-11-22T03:00:46.389Z,0.00
2018-11-22T03:01:46.413Z,0.00
2018-11-22T03:02:46.440Z,0.00
2018-11-22T03:03:46.468Z,0.00
2018-11-22T03:04:46.491Z,0.00
2018-11-22T03:05:46.513Z,0.00
2018-11-22T03:06:46.538Z,0.00
2018-11-22T03:07:46.561Z,0.00
2018-11-22T03:08:46.586Z,0.00
2018-11-22T03:09:46.614Z,0.00
2018-11-22T03:10:46.635Z,0.00
2018-11-22T03:11:46.677Z,0.00
2018-11-22T03:12:46.792Z,0.00
2018-11-22T03:13:46.712Z,0.00
2018-11-22T03:14:46.738Z,0.00
2018-11-22T03:15:46.759Z,0.00
2018-11-22T03:16:46.787Z,0.00
2018-11-22T03:17:46.809Z,0.00
2018-11-22T03:18:46.833Z,0.00
2018-11-22T03:19:46.858Z,0.00
2018-11-22T03:20:46.883Z,0.00
2018-11-22T03:21:46.906Z,0.00
2018-11-22T03:22:46.931Z,0.00
2018-11-22T03:23:46.957Z,0.00
2018-11-22T03:24:46.981Z,0.00
2018-11-22T03:25:47.005Z,0.00
2018-11-22T03:26:47.031Z,0.00
2018-11-22T03:27:47.054Z,0.00
2018-11-22T03:28:47.085Z,0.00
2018-11-22T03:29:47.104Z,0.00
2018-11-22T03:30:47.127Z,0.00
2018-11-22T03:31:47.152Z,0.00
2018-11-22T03:32:47.178Z,0.00
2018-11-22T03:33:47.203Z,0.00
2018-11-22T03:34:47.228Z,0.00
2018-11-22T03:35:47.252Z,0.00
2018-11-22T03:36:48.227Z,0.00
2018-11-22T03:37:47.299Z,0.00
2018-11-22T03:38:47.324Z,0.00
2018-11-22T03:39:47.349Z,0.00
2018-11-22T03:40:47.373Z,0.00
2018-11-22T03:41:47.400Z,0.00
2018-11-22T03:42:47.424Z,0.00
2018-11-22T03:43:47.448Z,0.00
2018-11-22T03:44:47.474Z,0.00
2018-11-22T03:45:47.498Z,0.00
2018-11-22T03:46:47.521Z,0.00
2018-11-22T03:47:47.549Z,0.00
2018-11-22T03:48:47.573Z,0.00
2018-11-22T03:49:50.439Z,0.00
2018-11-22T03:50:47.618Z,0.00
2018-11-22T03:51:47.643Z,0.00
2018-11-22T03:52:47.669Z,0.00
2018-11-22T03:53:47.692Z,0.00
2018-11-22T03:54:47.716Z,0.00
2018-11-22T03:55:47.741Z,0.00
2018-11-22T03:56:47.765Z,0.00
2018-11-22T03:57:47.791Z,0.00
2018-11-22T03:58:47.815Z,0.00
2018-11-22T03:59:47.840Z,0.00
2018-11-22T04:00:47.865Z,0.00
2018-11-22T04:01:47.890Z,0.00
2018-11-22T04:02:47.912Z,0.00
2018-11-22T04:03:47.938Z,0.00
2018-11-22T04:04:47.962Z,0.00
2018-11-22T04:05:47.987Z,0.00
2018-11-22T04:06:48.011Z,0.00
2018-11-22T04:07:48.035Z,0.00
2018-11-22T04:08:48.060Z,0.00
2018-11-22T04:09:48.084Z,0.00
2018-11-22T04:10:48.109Z,0.00
2018-11-22T04:11:48.132Z,0.00
2018-11-22T04:12:48.158Z,0.00
2018-11-22T04:13:48.185Z,0.00
2018-11-22T04:14:48.207Z,0.00
2018-11-22T04:15:48.229Z,0.00
2018-11-22T04:16:48.254Z,0.00
2018-11-22T04:17:48.278Z,0.00
2018-11-22T04:18:48.303Z,0.00
2018-11-22T04:19:48.330Z,0.00
2018-11-22T04:20:48.351Z,0.00
2018-11-22T04:21:48.376Z,0.00
2018-11-22T04:22:48.401Z,0.00
2018-11-22T04:23:48.425Z,0.00
2018-11-22T04:24:48.499Z,0.00
2018-11-22T04:25:48.473Z,0.00
2018-11-22T04:26:48.498Z,0.00
2018-11-22T04:27:48.521Z,0.00
2018-11-22T04:28:48.546Z,0.00
2018-11-22T04:29:48.574Z,0.00
2018-11-22T04:30:48.594Z,0.00
2018-11-22T04:31:48.623Z,0.00
2018-11-22T04:32:48.647Z,0.00
2018-11-22T04:33:48.671Z,0.00
2018-11-22T04:34:48.690Z,0.00
2018-11-22T04:35:48.717Z,0.00
2018-11-22T04:36:48.740Z,0.00
2018-11-22T04:37:48.765Z,0.00
2018-11-22T04:38:48.789Z,0.00
2018-11-22T04:39:48.812Z,0.00
2018-11-22T04:40:48.838Z,0.00
2018-11-22T04:41:48.861Z,0.00
2018-11-22T04:42:48.894Z,0.00
2018-11-22T04:43:48.909Z,0.00
2018-11-22T04:44:48.935Z,0.00
2018-11-22T04:45:48.959Z,0.00
2018-11-22T04:46:48.982Z,0.00
2018-11-22T04:47:49.006Z,0.00
2018-11-22T04:48:49.037Z,0.00
2018-11-22T04:49:49.055Z,0.00
2018-11-22T04:50:49.082Z,0.00
2018-11-22T04:51:49.103Z,0.00
2018-11-22T04:52:49.135Z,0.00
2018-11-22T04:53:49.152Z,0.00
2018-11-22T04:54:49.178Z,0.00
2018-11-22T04:55:49.200Z,0.00
2018-11-22T04:56:49.225Z,0.00
2018-11-22T04:57:49.250Z,0.00
2018-11-22T04:58:49.276Z,0.00
2018-11-22T04:59:49.298Z,0.00
2018-11-22T05:00:49.326Z,0.00
2018-11-22T05:01:49.350Z,0.00
2018-11-22T05:02:49.370Z,0.00
2018-11-22T05:03:49.393Z,0.00
2018-11-22T05:04:49.418Z,0.00
2018-11-22T05:05:49.444Z,0.00
2018-11-22T05:06:49.465Z,0.00
2018-11-22T05:07:49.491Z,0.00
2018-11-22T05:08:49.515Z,0.00
2018-11-22T05:09:49.540Z,0.00
2018-11-22T05:10:49.566Z,0.00
2018-11-22T05:11:49.588Z,0.00
2018-11-22T05:12:49.610Z,0.00
2018-11-22T05:13:49.635Z,0.00
2018-11-22T05:14:49.658Z,0.00
2018-11-22T05:15:49.683Z,0.00
2018-11-22T05:16:49.708Z,0.00
2018-11-22T05:17:49.732Z,0.00
2018-11-22T05:18:49.756Z,0.00
2018-11-22T05:19:49.786Z,0.00
2018-11-22T05:20:49.804Z,0.00
2018-11-22T05:21:49.830Z,0.00
2018-11-22T05:22:49.853Z,0.00
2018-11-22T05:23:49.877Z,0.00
2018-11-22T05:24:49.899Z,0.00
2018-11-22T05:25:49.925Z,0.00
2018-11-22T05:26:49.948Z,0.00
2018-11-22T05:27:49.974Z,0.00
2018-11-22T05:28:49.996Z,0.00
2018-11-22T05:29:50.022Z,0.00
2018-11-22T05:30:50.045Z,0.00
2018-11-22T05:31:50.069Z,0.00
2018-11-22T05:32:50.093Z,0.00
2018-11-22T05:33:50.116Z,0.00
2018-11-22T05:34:50.141Z,0.00
2018-11-22T05:35:50.168Z,0.00
2018-11-22T05:36:50.192Z,0.00
2018-11-22T05:37:50.214Z,0.00
2018-11-22T05:38:50.237Z,0.00
2018-11-22T05:39:50.261Z,0.00
2018-11-22T05:40:50.290Z,0.00
2018-11-22T05:41:50.309Z,0.00
2018-11-22T05:42:50.332Z,0.00
2018-11-22T05:43:50.357Z,0.00
2018-11-22T05:44:50.381Z,0.00
2018-11-22T05:45:50.405Z,0.00
2018-11-22T05:46:50.430Z,0.00
2018-11-22T05:47:50.453Z,0.00
2018-11-22T05:48:50.477Z,0.00
2018-11-22T05:49:50.503Z,0.00
2018-11-22T05:50:50.524Z,0.00
2018-11-22T05:51:50.549Z,0.00
2018-11-22T05:52:50.573Z,0.00
2018-11-22T05:53:50.598Z,0.00
2018-11-22T05:54:50.620Z,0.00
2018-11-22T05:55:50.644Z,0.00
2018-11-22T05:56:50.668Z,0.00
2018-11-22T05:57:50.695Z,0.00
2018-11-22T05:58:50.715Z,0.00
2018-11-22T05:59:50.741Z,0.00
2018-11-22T06:00:50.765Z,0.00
2018-11-22T06:01:50.787Z,0.00
2018-11-22T06:02:50.812Z,0.00
2018-11-22T06:03:50.835Z,0.00
2018-11-22T06:04:50.860Z,0.00
2018-11-22T06:05:50.882Z,0.00
2018-11-22T06:06:50.906Z,0.00
2018-11-22T06:07:50.931Z,0.00
2018-11-22T06:08:50.954Z,0.00
2018-11-22T06:09:50.981Z,0.00
2018-11-22T06:10:51.000Z,0.00
2018-11-22T06:11:51.025Z,4.00
2018-11-22T06:12:51.048Z,4.00
2018-11-22T06:13:51.072Z,0.00
2018-11-22T06:14:51.096Z,4.00
2018-11-22T06:15:51.119Z,4.00
2018-11-22T06:16:51.144Z,4.00
2018-11-22T06:17:51.166Z,8.00
2018-11-22T06:18:51.190Z,4.00
2018-11-22T06:19:51.212Z,4.00
2018-11-22T06:20:51.236Z,8.00
2018-11-22T06:21:51.259Z,8.00
2018-11-22T06:22:51.284Z,12.00
2018-11-22T06:23:51.308Z,12.00
2018-11-22T06:24:51.339Z,16.00
2018-11-22T06:25:51.355Z,20.00
2018-11-22T06:26:51.376Z,24.00
2018-11-22T06:27:51.401Z,28.00
2018-11-22T06:28:51.425Z,32.00
2018-11-22T06:29:51.449Z,40.00
2018-11-22T06:30:51.471Z,48.00
2018-11-22T06:31:51.493Z,56.00
2018-11-22T06:32:51.518Z,64.00
2018-11-22T06:33:51.541Z,76.00
2018-11-22T06:34:51.565Z,84.00
2018-11-22T06:35:51.588Z,96.00
2018-11-22T06:36:51.612Z,108.00
2018-11-22T06:37:51.635Z,124.00
2018-11-22T06:38:51.659Z,140.00
2018-11-22T06:39:51.681Z,156.00
2018-11-22T06:40:51.704Z,172.00
2018-11-22T06:41:51.729Z,192.00
2018-11-22T06:42:51.752Z,212.00
2018-11-22T06:43:51.774Z,232.00
2018-11-22T06:44:51.797Z,252.00
2018-11-22T06:45:51.824Z,268.00
2018-11-22T06:46:51.846Z,288.00
2018-11-22T06:47:51.868Z,312.00
2018-11-22T06:48:51.891Z,328.00
2018-11-22T06:49:51.916Z,348.00
2018-11-22T06:50:51.940Z,368.00
2018-11-22T06:51:51.965Z,384.00
2018-11-22T06:52:51.984Z,408.00
2018-11-22T06:53:52.008Z,436.00
2018-11-22T06:54:52.031Z,460.00
2018-11-22T06:55:52.056Z,496.00
2018-11-22T06:56:52.078Z,520.00
2018-11-22T06:57:52.103Z,552.00
2018-11-22T06:58:52.124Z,588.00
2018-11-22T06:59:52.151Z,628.00
2018-11-22T07:00:52.195Z,668.00
2018-11-22T07:01:52.196Z,700.00
2018-11-22T07:02:52.221Z,728.00
2018-11-22T07:03:53.795Z,760.00
2018-11-22T07:04:52.265Z,796.00
2018-11-22T07:05:52.290Z,840.00
2018-11-22T07:06:52.312Z,884.00
2018-11-22T07:07:52.335Z,928.00
2018-11-22T07:08:52.361Z,968.00
2018-11-22T07:09:52.383Z,1008.00
2018-11-22T07:10:52.406Z,1044.00
2018-11-22T07:11:52.429Z,1084.00
2018-11-22T07:12:52.456Z,1120.00
2018-11-22T07:13:52.478Z,1144.00
2018-11-22T07:14:52.502Z,1164.00
2018-11-22T07:15:52.526Z,1176.00
2018-11-22T07:16:52.549Z,1208.00
2018-11-22T07:17:52.574Z,1224.00
2018-11-22T07:18:52.596Z,1208.00
2018-11-22T07:19:52.621Z,1192.00
2018-11-22T07:20:52.644Z,1180.00
2018-11-22T07:21:52.670Z,1132.00
2018-11-22T07:22:52.695Z,1088.00
2018-11-22T07:23:52.717Z,1096.00
2018-11-22T07:24:52.746Z,1116.00
2018-11-22T07:25:52.765Z,1144.00
2018-11-22T07:26:52.788Z,1180.00
2018-11-22T07:27:52.812Z,1220.00
2018-11-22T07:28:52.841Z,1260.00
2018-11-22T07:29:52.862Z,1288.00
2018-11-22T07:30:52.888Z,1316.00
2018-11-22T07:31:52.909Z,1340.00
2018-11-22T07:32:52.934Z,1368.00
2018-11-22T07:33:52.958Z,1392.00
2018-11-22T07:34:52.980Z,1416.00
2018-11-22T07:35:53.007Z,1436.00
2018-11-22T07:36:53.030Z,1456.00
2018-11-22T07:37:53.054Z,1480.00
2018-11-22T07:38:53.077Z,1512.00
2018-11-22T07:39:53.101Z,1540.00
2018-11-22T07:40:53.126Z,1572.00
2018-11-22T07:41:53.154Z,1632.00
2018-11-22T07:42:53.174Z,1684.00
2018-11-22T07:43:53.199Z,1720.00
2018-11-22T07:44:53.224Z,1744.00
2018-11-22T07:45:53.248Z,1784.00
2018-11-22T07:46:53.271Z,1848.00
2018-11-22T07:47:53.295Z,1904.00
2018-11-22T07:48:53.322Z,1956.00
2018-11-22T07:49:53.346Z,1996.00
2018-11-22T07:50:53.369Z,2040.00
2018-11-22T07:51:53.393Z,2080.00
2018-11-22T07:52:55.998Z,2116.00
2018-11-22T07:53:53.444Z,2152.00
2018-11-22T07:54:53.466Z,2176.00
2018-11-22T07:55:53.491Z,2212.00
2018-11-22T07:56:53.516Z,2260.00
2018-11-22T07:57:53.541Z,2332.00
2018-11-22T07:58:53.564Z,2412.00
2018-11-22T07:59:53.591Z,2480.00
2018-11-22T08:00:53.614Z,2532.00
2018-11-22T08:01:53.640Z,2556.00
2018-11-22T08:02:53.663Z,2576.00
2018-11-22T08:03:53.688Z,2596.00
2018-11-22T08:04:53.716Z,2632.00
2018-11-22T08:05:53.763Z,2676.00
2018-11-22T08:06:53.763Z,2724.00
2018-11-22T08:07:53.787Z,2736.00
2018-11-22T08:08:53.812Z,2732.00
2018-11-22T08:09:53.839Z,2732.00
2018-11-22T08:10:53.879Z,2752.00
2018-11-22T08:11:53.885Z,2804.00
2018-11-22T08:12:54.013Z,2868.00
2018-11-22T08:13:53.935Z,2928.00
2018-11-22T08:14:53.989Z,2968.00
2018-11-22T08:15:53.986Z,3020.00
2018-11-22T08:16:54.010Z,3060.00
2018-11-22T08:17:54.037Z,3128.00
2018-11-22T08:18:54.060Z,3216.00
2018-11-22T08:19:54.092Z,3352.00
2018-11-22T08:20:54.110Z,3500.00
2018-11-22T08:21:54.137Z,3628.00
2018-11-22T08:22:54.158Z,3756.00
2018-11-22T08:23:54.185Z,3884.00
2018-11-22T08:24:54.273Z,4012.00
2018-11-22T08:25:54.234Z,4084.00
2018-11-22T08:26:54.260Z,4068.00
2018-11-22T08:27:54.307Z,4032.00
2018-11-22T08:28:54.311Z,4036.00
2018-11-22T08:29:54.351Z,4104.00
2018-11-22T08:30:54.363Z,4164.00
2018-11-22T08:31:54.391Z,4200.00
2018-11-22T08:32:54.411Z,4200.00
2018-11-22T08:33:54.437Z,4196.00
2018-11-22T08:34:54.476Z,4200.00
2018-11-22T08:35:54.491Z,4260.00
2018-11-22T08:36:54.514Z,4348.00
2018-11-22T08:37:54.541Z,4452.00
2018-11-22T08:38:54.563Z,4560.00
2018-11-22T08:39:54.599Z,4660.00
2018-11-22T08:40:54.617Z,4728.00
2018-11-22T08:41:54.640Z,4792.00
2018-11-22T08:42:55.189Z,4912.00
2018-11-22T08:43:54.692Z,5116.00
2018-11-22T08:44:54.716Z,5264.00
2018-11-22T08:45:54.742Z,5348.00
2018-11-22T08:46:54.769Z,5412.00
2018-11-22T08:47:54.794Z,5492.00
2018-11-22T08:48:54.820Z,5608.00
2018-11-22T08:49:54.848Z,5748.00
2018-11-22T08:50:54.870Z,5908.00
2018-11-22T08:51:54.897Z,6000.00
2018-11-22T08:52:54.922Z,6068.00
2018-11-22T08:53:54.951Z,6228.00
2018-11-22T08:54:54.975Z,6564.00
2018-11-22T08:55:55.000Z,6960.00
2018-11-22T08:56:55.027Z,7340.00
2018-11-22T08:57:55.052Z,7696.00
2018-11-22T08:58:55.079Z,8020.00
2018-11-22T08:59:55.104Z,8432.00
2018-11-22T09:00:55.133Z,8972.00
2018-11-22T09:01:55.162Z,9496.00
2018-11-22T09:02:55.185Z,9880.00
2018-11-22T09:03:55.209Z,10332.00
2018-11-22T09:04:55.241Z,10752.00
2018-11-22T09:05:55.280Z,11112.00
2018-11-22T09:06:55.290Z,11628.00
2018-11-22T09:07:55.316Z,12408.00
2018-11-22T09:08:55.341Z,13348.00
2018-11-22T09:09:55.371Z,14068.00
2018-11-22T09:10:55.394Z,16096.00
2018-11-22T09:11:55.424Z,16544.00
2018-11-22T09:12:55.448Z,16704.00
2018-11-22T09:13:55.475Z,16640.00
2018-11-22T09:14:55.500Z,17376.00
2018-11-22T09:15:55.529Z,19968.00
2018-11-22T09:16:55.556Z,16640.00
2018-11-22T09:17:55.583Z,17088.00
2018-11-22T09:18:55.610Z,27200.00
2018-11-22T09:19:55.667Z,34752.00
2018-11-22T09:20:55.668Z,38976.00
2018-11-22T09:21:55.693Z,39232.00
2018-11-22T09:22:55.723Z,40320.00
2018-11-22T09:23:55.754Z,40512.00
2018-11-22T09:24:55.781Z,38848.00
2018-11-22T09:25:55.811Z,34464.00
2018-11-22T09:26:55.846Z,32160.00
2018-11-22T09:27:55.869Z,31584.00
2018-11-22T09:28:55.901Z,31456.00
2018-11-22T09:29:55.930Z,31328.00
2018-11-22T09:30:55.960Z,31296.00
2018-11-22T09:31:55.992Z,31296.00
2018-11-22T09:32:56.024Z,31296.00
2018-11-22T09:33:56.055Z,31616.00
2018-11-22T09:34:56.088Z,32832.00
2018-11-22T09:35:56.121Z,37856.00
2018-11-22T09:36:56.153Z,41312.00
2018-11-22T09:37:56.186Z,39840.00
2018-11-22T09:38:56.219Z,41312.00
2018-11-22T09:39:56.254Z,43200.00
2018-11-22T09:40:56.287Z,43104.00
2018-11-22T09:41:56.323Z,44064.00
2018-11-22T09:42:56.356Z,45024.00
2018-11-22T09:43:56.391Z,44992.00
2018-11-22T09:44:56.426Z,45312.00
2018-11-22T09:45:56.462Z,45472.00
2018-11-22T09:46:56.496Z,45696.00
2018-11-22T09:47:56.532Z,45152.00
2018-11-22T09:48:56.568Z,45056.00
2018-11-22T09:49:56.605Z,45536.00
2018-11-22T09:50:56.640Z,45824.00
2018-11-22T09:51:56.681Z,45824.00
2018-11-22T09:52:56.717Z,46784.00
2018-11-22T09:53:56.750Z,46816.00
2018-11-22T09:54:56.785Z,47936.00
2018-11-22T09:55:56.823Z,48608.00
2018-11-22T09:56:56.861Z,48352.00
2018-11-22T09:57:56.897Z,48096.00
2018-11-22T09:58:56.968Z,49248.00
2018-11-22T09:59:56.971Z,50240.00
2018-11-22T10:00:57.008Z,50240.00
2018-11-22T10:01:57.045Z,49568.00
2018-11-22T10:02:57.101Z,49568.00
2018-11-22T10:03:57.120Z,49344.00
2018-11-22T10:04:57.329Z,49568.00
2018-11-22T10:05:57.290Z,49824.00
2018-11-22T10:06:57.233Z,50240.00
2018-11-22T10:07:57.269Z,49856.00
2018-11-22T10:08:57.310Z,50048.00
2018-11-22T10:09:57.347Z,51392.00
2018-11-22T10:10:57.383Z,49984.00
2018-11-22T10:11:57.422Z,49152.00
2018-11-22T10:12:57.461Z,49920.00
2018-11-22T10:13:57.498Z,50752.00
2018-11-22T10:14:57.536Z,50880.00
2018-11-22T10:15:57.575Z,48736.00
2018-11-22T10:16:57.662Z,47136.00
2018-11-22T10:17:57.651Z,50592.00
2018-11-22T10:18:57.690Z,51456.00
2018-11-22T10:19:57.728Z,50624.00
2018-11-22T10:20:57.766Z,52480.00
2018-11-22T10:21:57.805Z,54432.00
2018-11-22T10:22:57.842Z,53920.00
2018-11-22T10:23:57.929Z,53664.00
2018-11-22T10:24:57.921Z,53344.00
2018-11-22T10:25:57.959Z,52736.00
2018-11-22T10:26:57.997Z,52960.00
2018-11-22T10:27:58.036Z,54240.00
2018-11-22T10:28:58.074Z,55200.00
2018-11-22T10:29:58.116Z,53376.00
2018-11-22T10:30:58.152Z,53312.00
2018-11-22T10:31:58.191Z,53920.00
2018-11-22T10:32:58.229Z,54336.00
2018-11-22T10:33:58.268Z,54400.00
2018-11-22T10:34:58.306Z,54304.00
2018-11-22T10:35:58.345Z,54400.00
2018-11-22T10:36:58.384Z,55392.00
2018-11-22T10:37:58.591Z,55552.00
2018-11-22T10:38:58.474Z,56736.00
2018-11-22T10:39:58.502Z,57344.00
2018-11-22T10:40:58.541Z,57856.00
2018-11-22T10:41:58.581Z,59200.00
2018-11-22T10:42:58.620Z,59136.00
2018-11-22T10:43:58.661Z,58208.00
2018-11-22T10:44:58.702Z,58592.00
2018-11-22T10:45:58.743Z,59136.00
2018-11-22T10:46:58.778Z,58016.00
2018-11-22T10:47:58.818Z,57824.00
2018-11-22T10:48:58.859Z,58496.00
2018-11-22T10:49:58.898Z,58848.00
2018-11-22T10:50:58.937Z,59424.00
2018-11-22T10:51:58.978Z,60288.00
2018-11-22T10:52:59.018Z,59424.00
2018-11-22T10:53:59.057Z,59520.00
2018-11-22T10:54:59.099Z,60384.00
2018-11-22T10:55:59.137Z,61024.00
2018-11-22T10:56:59.177Z,60416.00
2018-11-22T10:57:59.217Z,59776.00
2018-11-22T10:58:59.257Z,59104.00
2018-11-22T10:59:59.298Z,59552.00
2018-11-22T11:00:59.362Z,61792.00
2018-11-22T11:01:59.381Z,62752.00
2018-11-22T11:02:59.418Z,63136.00
2018-11-22T11:03:59.458Z,62784.00
2018-11-22T11:04:59.500Z,61024.00
2018-11-22T11:05:59.548Z,59552.00
2018-11-22T11:06:59.579Z,60256.00
2018-11-22T11:07:59.620Z,61632.00
2018-11-22T11:08:59.660Z,61760.00
2018-11-22T11:09:59.702Z,60992.00
2018-11-22T11:10:59.742Z,60640.00
2018-11-22T11:11:59.785Z,60384.00
2018-11-22T11:12:59.823Z,59648.00
2018-11-22T11:13:59.871Z,61056.00
2018-11-22T11:14:59.905Z,61888.00
2018-11-22T11:15:59.947Z,62144.00
2018-11-22T11:16:59.988Z,63104.00
2018-11-22T11:18:00.029Z,64384.00
2018-11-22T11:19:00.069Z,62688.00
2018-11-22T11:20:00.109Z,61504.00
2018-11-22T11:21:00.151Z,62400.00
2018-11-22T11:22:00.191Z,64064.00
2018-11-22T11:23:00.232Z,63072.00
2018-11-22T11:24:00.274Z,63424.00
2018-11-22T11:25:00.315Z,63616.00
2018-11-22T11:26:00.371Z,62976.00
2018-11-22T11:27:00.399Z,63200.00
2018-11-22T11:28:00.456Z,62784.00
2018-11-22T11:29:00.480Z,62848.00
2018-11-22T11:30:00.521Z,63360.00
2018-11-22T11:31:00.562Z,62656.00
2018-11-22T11:32:00.605Z,62656.00
2018-11-22T11:33:00.645Z,61184.00
2018-11-22T11:34:00.688Z,60832.00
2018-11-22T11:35:00.726Z,62976.00
2018-11-22T11:36:00.768Z,63520.00
2018-11-22T11:37:00.814Z,63392.00
2018-11-22T11:38:00.852Z,63520.00
2018-11-22T11:39:00.897Z,63808.00
2018-11-22T11:40:00.934Z,62688.00
2018-11-22T11:41:00.975Z,62112.00
2018-11-22T11:42:01.018Z,62304.00
2018-11-22T11:43:01.058Z,62720.00
2018-11-22T11:44:01.102Z,62336.00
2018-11-22T11:45:01.147Z,62976.00
2018-11-22T11:46:01.184Z,62592.00
2018-11-22T11:47:01.224Z,62464.00
2018-11-22T11:48:01.266Z,63296.00
2018-11-22T11:49:01.309Z,63296.00
2018-11-22T11:50:01.350Z,62912.00
2018-11-22T11:51:01.391Z,63488.00
2018-11-22T11:52:01.433Z,63584.00
2018-11-22T11:53:01.474Z,64032.00
2018-11-22T11:54:01.518Z,63072.00
2018-11-22T11:55:01.558Z,60608.00
2018-11-22T11:56:01.602Z,61280.00
2018-11-22T11:57:01.641Z,64064.00
2018-11-22T11:58:01.684Z,64384.00
2018-11-22T11:59:01.725Z,63904.00
2018-11-22T12:00:01.766Z,63616.00
2018-11-22T12:01:01.809Z,63808.00
2018-11-22T12:02:01.851Z,64160.00
2018-11-22T12:03:01.891Z,64160.00
2018-11-22T12:04:01.934Z,65024.00
2018-11-22T12:05:01.977Z,65504.00
2018-11-22T12:06:02.019Z,65120.00
2018-11-22T12:07:02.059Z,64672.00
2018-11-22T12:08:02.101Z,63808.00
2018-11-22T12:09:02.143Z,64960.00
2018-11-22T12:10:02.186Z,64896.00
2018-11-22T12:11:02.228Z,65120.00
2018-11-22T12:12:02.270Z,65888.00
2018-11-22T12:13:02.312Z,65504.00
2018-11-22T12:14:02.354Z,65856.00
2018-11-22T12:15:02.396Z,65664.00
2018-11-22T12:16:02.452Z,65472.00
2018-11-22T12:17:02.481Z,65088.00
2018-11-22T12:18:02.522Z,64896.00
2018-11-22T12:19:02.572Z,64416.00
2018-11-22T12:20:02.606Z,64864.00
2018-11-22T12:21:02.649Z,63904.00
2018-11-22T12:22:02.691Z,63584.00
2018-11-22T12:23:02.733Z,63904.00
2018-11-22T12:24:02.780Z,64224.00
2018-11-22T12:25:02.896Z,64480.00
2018-11-22T12:26:02.863Z,64672.00
2018-11-22T12:27:02.900Z,64320.00
2018-11-22T12:28:02.944Z,63072.00
2018-11-22T12:29:02.994Z,62400.00
2018-11-22T12:30:03.030Z,62720.00
2018-11-22T12:31:06.538Z,62592.00
2018-11-22T12:32:03.113Z,61824.00
2018-11-22T12:33:03.154Z,61248.00
2018-11-22T12:34:03.199Z,60448.00
2018-11-22T12:35:03.239Z,58560.00
2018-11-22T12:36:03.280Z,57664.00